Norwood, North Carolina
Current Conditions -  °F | °C
As of 3:55 AM on Wednesday 26 Nov 2014 (Local Time) from KVUJ Reporting Station
Moderate Rain Moderate Rain  
Wind Chill: 40°   Ceiling: 800
Heat Index: 46°   Visibility: 7mi
Dew Point: 46°   Wind: 13mph
Humidity: 100%   Direction: 350°N
Pressure: 29.97"   Gusts: 18mph
Location:  35.22°N, 80.12°W
Report Text: KVUJ 260855Z AUTO 35011G16KT 7SM RA OVC008 08/08 A2997 RMK AO2 P0010 60025 T00760076
Loading
Personal Weather Stations






























Interactive Weather Map New forecast layout! Learn more

10-Day Weather Forecast

Advertisements
Track Severe Weather on mobile